Krugerville, Texas
Current Conditions -  °F | °C
As of 7:53 AM on Sunday 25 Jan 2015 (Local Time) from KDTO Reporting Station
Clear Clear  
Wind Chill: 37°   Ceiling: Unl
Heat Index: 43°   Visibility: 10mi
Dew Point: 34°   Wind: 10mph
Humidity: 71%   Direction: 280°W
Pressure: 30"   Gusts: NA
Location:  33.2863°N, 96.9901°W
Report Text: KDTO 251353Z 28009KT 10SM CLR 06/01 A3000 RMK AO2 SLP158 T00610011
Loading
Personal Weather Stations






























Interactive Weather Map New forecast layout! Learn more

10-Day Weather Forecast

Advertisements
Track Severe Weather on mobile